»·PEaware :: N772BL KSBA-KBUR

N772BL :: KSBA-KBUR

FLIGHT INFORMATION

Flight Status: Arrived
Operator: Privately registered:
United States
More flights under this callsign
Pilot: Erik B. (9150)
Aircraft: CESSNA 172 SKYHAWK
(C172)
More flights by this aircraft type
Origin: KSBA Santa Barbara Mun
United States
Destination: KBUR Bob Hope-Burbank
United States
More flights between these airports :: More routes between these airports
Route: FIM
File this flight plan on PilotEdge
Remarks: Transporting 2 pax via FSEconomy
Altitude:
(Current/Filed)
3,500ft
Speed:
(Current/Filed)
100kts
Departed: 01-Oct-18 06:28 PM
Arrived: 01-Oct-18 07:16 PM
Distance/Time
Traveled:
75nm/0:47
Distance/Time
To Go:
Arrived

Flight Plot

Page will automatically refresh every two minutes.


Map Options




Map Legend


Flown Route
Filed Route
Departure Airport
Arrival Airport
Navaid (VOR, NDB)
Fix

Horizontal Profiles

Position Reports

Time Latitude Longitude Heading Altitude Ground
Speed
01-Oct-18 18:10 34.432569 -119.835084 71 14ft 0kts
01-Oct-18 18:11 34.432569 -119.835084 71 14ft 0kts
01-Oct-18 18:12 34.432569 -119.835084 71 14ft 0kts
01-Oct-18 18:13 34.432569 -119.835084 71 14ft 0kts
01-Oct-18 18:14 34.432569 -119.835084 71 14ft 0kts
01-Oct-18 18:15 34.432569 -119.835084 71 14ft 0kts
01-Oct-18 18:16 34.432569 -119.835084 71 14ft 0kts
01-Oct-18 18:17 34.432569 -119.835084 71 14ft 0kts
01-Oct-18 18:18 34.432569 -119.835084 71 14ft 0kts
01-Oct-18 18:19 34.432569 -119.835084 71 14ft 0kts
01-Oct-18 18:20 34.432569 -119.835084 71 14ft 0kts
01-Oct-18 18:21 34.432569 -119.835084 71 14ft 0kts
01-Oct-18 18:22 34.432569 -119.835084 71 14ft 0kts
01-Oct-18 18:23 34.432569 -119.835084 71 14ft 0kts
01-Oct-18 18:24 34.432569 -119.835084 71 14ft 0kts
01-Oct-18 18:25 34.431613 -119.835344 178 14ft 10kts
01-Oct-18 18:26 34.429072 -119.835236 182 11ft 1kts
01-Oct-18 18:27 34.428935 -119.835243 181 11ft 3kts
01-Oct-18 18:28 34.428674 -119.835223 176 11ft 0kts
01-Oct-18 18:29 34.427893 -119.835614 267 10ft 0kts
01-Oct-18 18:30 34.427955 -119.845337 270 200ft 65kts
01-Oct-18 18:31 34.428752 -119.870591 268 834ft 81kts
01-Oct-18 18:32 34.428641 -119.897642 266 1333ft 84kts
01-Oct-18 18:33 34.427907 -119.927982 281 1511ft 90kts
01-Oct-18 18:34 34.442178 -119.916080 89 2038ft 114kts
01-Oct-18 18:35 34.444237 -119.878905 100 2624ft 111kts
01-Oct-18 18:36 34.435274 -119.843165 109 3136ft 113kts
01-Oct-18 18:37 34.429785 -119.802602 98 3326ft 127kts
01-Oct-18 18:38 34.426619 -119.763019 97 3325ft 110kts
01-Oct-18 18:39 34.423804 -119.725751 97 3326ft 114kts
01-Oct-18 18:40 34.420849 -119.686836 97 3326ft 117kts
01-Oct-18 18:41 34.417821 -119.647113 97 3326ft 117kts
01-Oct-18 18:42 34.414824 -119.607911 97 3326ft 115kts
01-Oct-18 18:43 34.411858 -119.569269 97 3326ft 115kts
01-Oct-18 18:44 34.408901 -119.530908 97 3326ft 115kts
01-Oct-18 18:45 34.405910 -119.492274 97 3325ft 115kts
01-Oct-18 18:46 34.402909 -119.453660 96 3324ft 115kts
01-Oct-18 18:47 34.399884 -119.414907 96 3323ft 116kts
01-Oct-18 18:48 34.397052 -119.378449 96 3506ft 113kts
01-Oct-18 18:49 34.393354 -119.340036 102 3501ft 122kts
01-Oct-18 18:50 34.389010 -119.299259 97 3498ft 118kts
01-Oct-18 18:51 34.385714 -119.260717 98 3498ft 113kts
01-Oct-18 18:52 34.381720 -119.223353 98 3499ft 112kts
01-Oct-18 18:53 34.378214 -119.185464 97 3508ft 114kts
01-Oct-18 18:54 34.375007 -119.147045 97 3508ft 114kts
01-Oct-18 18:55 34.371894 -119.108587 97 3508ft 114kts
01-Oct-18 18:56 34.368861 -119.070862 97 3508ft 113kts
01-Oct-18 18:57 34.365809 -119.032916 97 3508ft 112kts
01-Oct-18 18:58 34.362765 -118.995175 97 3508ft 112kts
01-Oct-18 18:59 34.359730 -118.957660 97 3508ft 112kts
01-Oct-18 19:00 34.356845 -118.920088 95 3508ft 112kts
01-Oct-18 19:01 34.354769 -118.882424 103 3507ft 111kts
01-Oct-18 19:02 34.344889 -118.847062 111 3508ft 110kts
01-Oct-18 19:03 34.334564 -118.812015 111 3508ft 110kts
01-Oct-18 19:04 34.324171 -118.776857 111 3510ft 110kts
01-Oct-18 19:05 34.313821 -118.741895 111 3513ft 110kts
01-Oct-18 19:06 34.303527 -118.707181 111 3515ft 110kts
01-Oct-18 19:07 34.293233 -118.672487 110 3517ft 109kts
01-Oct-18 19:08 34.282924 -118.637778 110 3518ft 109kts
01-Oct-18 19:09 34.272684 -118.603216 109 3518ft 109kts
01-Oct-18 19:10 34.261215 -118.569667 127 3517ft 108kts
01-Oct-18 19:11 34.242475 -118.541148 130 3518ft 108kts
01-Oct-18 19:12 34.219908 -118.517101 144 3354ft 112kts
01-Oct-18 19:13 34.198069 -118.494751 132 3142ft 110kts
01-Oct-18 19:14 34.197833 -118.457156 82 2228ft 119kts
01-Oct-18 19:15 34.198289 -118.419871 91 1598ft 97kts
01-Oct-18 19:16 34.198089 -118.391090 92 1139ft 83kts
01-Oct-18 19:17 34.197868 -118.364567 94 727ft 68kts
01-Oct-18 19:18 34.198286 -118.355243 350 706ft 0kts
01-Oct-18 19:19 34.198585 -118.354800 42 705ft 9kts
01-Oct-18 19:20 34.198800 -118.354125 271 704ft 17kts
01-Oct-18 19:21 34.198926 -118.357836 291 714ft 18kts
01-Oct-18 19:22 34.200390 -118.359539 348 723ft 0kts

Navigation Log

Ident Type
Flight plan parsing failed, navigation log unavailable